(°C)
(°C)
-5°
-5°
-6°
-8°
-10°
-11°
-13°
СВ
СВ
СВ
СВ
ССВ
ССВ
ССВ
(км/ч)
24-42
28-47
32-53
37-60
43-68
49-75
54-83
(мм)
0
0.1
0.4
1
1.9
2.6
3.3
(%)
84
99
99
99
99
99
99

Высота солнцестояния

/ -45.8°
sun-icon
UV 0
06:55
16:53
Убывающая луна (322°)
04:53
13:45

METAR для Barnstable (KHYA)

Время Условия Температура/
Точка росы
Ветер Видимость Погода Облачность Давление Изменить Необработанный
IFR 1.7°C / 0°C 30º 12kt Gust 18kt 6400m Light Snow Mist 0.13mm precipitation Overcast 500ft - KHYA 290720Z AUTO 03012G18KT 4SM -SN BR OVC005 02/00 A2979 RMK AO2 P0000 T00170000
IFR 1.7°C / -0.6°C 20º 12kt 3200m Light Snow Mist 0.25mm precipitation Overcast 500ft 1010 - KHYA 290656Z AUTO 02012KT 2SM -SN BR OVC005 02/M01 A2982 RMK AO2 PRESFR SLP100 P0001 T00171006
IFR 1.7°C / -0.6°C 30º 9kt 3200m Light Snow Mist 0.13mm precipitation Overcast 500ft - KHYA 290623Z AUTO 03009KT 2SM -SN BR OVC005 02/M01 A2986 RMK AO2 PRESFR P0000 T00171006
LIFR 1.7°C / -0.6°C 40º 10kt Gust 17kt 2400m Light Snow Mist 0.51mm precipitation Overcast 400ft 1012 - KHYA 290556Z AUTO 04010G17KT 1 1/2SM -SN BR OVC004 02/M01 A2989 RMK AO2 SLP121 P0002 60002 T00171006 10017 20006 58029
IFR 1.7°C / -0.6°C 30º 9kt 2000m Light Snow Mist 0.13mm precipitation Broken Clouds 600ft
Overcast 1700ft
1014 - KHYA 290456Z AUTO 03009KT 1 1/4SM -SN BR BKN006 OVC017 02/M01 A2995 RMK AO2 SLP141 P0000 T00171006 400440006
IFR 1.7°C / -0.6°C 40º 9kt 3200m Light Snow Mist 0.13mm precipitation Broken Clouds 600ft
Overcast 2600ft
- KHYA 290434Z AUTO 04009KT 2SM -SN BR BKN006 OVC026 02/M01 A2996 RMK AO2 P0000 T00171006
IFR 1.7°C / -1.1°C 30º 8kt 2800m Light Snow 0.13mm precipitation Broken Clouds 600ft
Overcast 2500ft
- KHYA 290410Z AUTO 03008KT 1 3/4SM -SN BKN006 OVC025 02/M01 A2998 RMK AO2 P0000 T00171011
IFR 1.7°C / -1.1°C 30º 9kt 2800m Light Snow 0.13mm precipitation Scattered Clouds 600ft
Overcast 2900ft
1015 - KHYA 290356Z AUTO 03009KT 1 3/4SM -SN SCT006 OVC029 02/M01 A2997 RMK AO2 SLP151 P0000 T00171011
IFR 1.1°C / -1.1°C 30º 8kt 3200m Light Snow Mist 0.13mm precipitation Few Clouds 600ft
Overcast 2900ft
- KHYA 290347Z AUTO 03008KT 2SM -SN BR FEW006 OVC029 01/M01 A2998 RMK AO2 P0000 T00111011
IFR 1.1°C / -2.2°C 30º 6kt 2400m Light Snow 0.13mm precipitation Overcast 2500ft - KHYA 290322Z AUTO 03006KT 1 1/2SM -SN OVC025 01/M02 A3001 RMK AO2 P0000 T00111022
IFR 1.7°C / -2.2°C 30º 5kt 4000m Light Snow 0.13mm precipitation Overcast 2900ft - KHYA 290306Z AUTO 03005KT 2 1/2SM -SN OVC029 02/M02 A3003 RMK AO2 P0000 T00171022
MVFR 1.7°C / -2.8°C 40º 6kt 6400m Light Snow 0.13mm precipitation Broken Clouds 3500ft
Overcast 4300ft
1016 - KHYA 290256Z 04006KT 4SM -SN BKN035 OVC043 02/M03 A3002 RMK AO2 SNB47 SLP167 P0000 60000 T00171028 58015
VFR 1.1°C / -3.3°C 40º 6kt >10km - Overcast 4200ft 1017 - KHYA 290156Z 04006KT 10SM OVC042 01/M03 A3004 RMK AO2 SLP174 T00111033
VFR 1.1°C / -2.8°C 40º 5kt >10km - Overcast 4800ft 1017 - KHYA 290056Z 04005KT 10SM OVC048 01/M03 A3005 RMK AO2 SLP178 T00111028
VFR 0.6°C / -2.2°C 20º 6kt >10km - Overcast 5000ft 1018 - KHYA 282356Z 02006KT 8SM OVC050 01/M02 A3007 RMK AO2 SLP183 60000 T00061022 10044 20006 58005
VFR 0.6°C / -2.8°C 20º 5kt >10km - Few Clouds 6000ft
Overcast 8500ft
1018 - KHYA 282256Z 02005KT 8SM FEW060 OVC085 01/M03 A3007 RMK AO2 SLP186 T00061028
VFR 1.1°C / -2.8°C 20º 3kt >10km - Broken Clouds 4100ft
Overcast 6000ft
1019 - KHYA 282156Z 02003KT 8SM BKN041 OVC060 01/M03 A3009 RMK AO2 SLP190 T00111028
VFR 2.2°C / -3.3°C 330º 5kt >10km 0.13mm precipitation Scattered Clouds 3500ft
Overcast 4400ft
1018 - KHYA 282056Z 33005KT 9SM SCT035 OVC044 02/M03 A3008 RMK AO2 SNB22E37 SLP188 P0000 60000 T00221033 50001
VFR 2.8°C / -4.4°C 280º 4kt >10km - Few Clouds 2800ft
Broken Clouds 4600ft
Overcast 8000ft
1019 - KHYA 281956Z 28004KT 10SM FEW028 BKN046 OVC080 03/M04 A3009 RMK AO2 SLP191 T00281044
VFR 3.3°C / -5°C 260º 7kt >10km - Few Clouds 3400ft
Broken Clouds 4800ft
Overcast 6500ft
1018 - KHYA 281856Z 26007KT 10SM FEW034 BKN048 OVC065 03/M05 A3007 RMK AO2 SLP185 T00331050
VFR 4.4°C / -7.2°C 230º 6kt >10km - Overcast 6000ft 1018 - KHYA 281756Z 23006KT 10SM OVC060 04/M07 A3008 RMK AO2 SLP186 T00441072 10044 20006 58018
VFR 3.3°C / -7.2°C 260º 8kt >10km - Overcast 7000ft 1019 - KHYA 281656Z 26008KT 10SM OVC070 03/M07 A3011 RMK AO2 SLP197 T00331072
VFR 2.8°C / -6.7°C 240º 6kt >10km - Overcast 7000ft 1020 - KHYA 281556Z 24006KT 10SM OVC070 03/M07 A3012 RMK AO2 SLP201 T00281067
VFR 2.2°C / -7.2°C 270º 6kt >10km - Few Clouds 5500ft
Broken Clouds 7000ft
Overcast 11000ft
1020 - KHYA 281456Z 27006KT 10SM FEW055 BKN070 OVC110 02/M07 A3013 RMK AO2 SLP205 T00221072 58004

IFR

1.7°C / 0°C

[Больше]
Ветер 30º 12kt Gust 18kt
Видимость 6400m
Погода Light Snow Mist 0.13mm precipitation
Облачность Overcast 500ft
Давление
Изменить -
Необработанный KHYA 290720Z AUTO 03012G18KT 4SM -SN BR OVC005 02/00 A2979 RMK AO2 P0000 T00170000

IFR

1.7°C / -0.6°C

[Больше]
Ветер 20º 12kt
Видимость 3200m
Погода Light Snow Mist 0.25mm precipitation
Облачность Overcast 500ft
Давление 1010
Изменить -
Необработанный KHYA 290656Z AUTO 02012KT 2SM -SN BR OVC005 02/M01 A2982 RMK AO2 PRESFR SLP100 P0001 T00171006

IFR

1.7°C / -0.6°C

[Больше]
Ветер 30º 9kt
Видимость 3200m
Погода Light Snow Mist 0.13mm precipitation
Облачность Overcast 500ft
Давление
Изменить -
Необработанный KHYA 290623Z AUTO 03009KT 2SM -SN BR OVC005 02/M01 A2986 RMK AO2 PRESFR P0000 T00171006

LIFR

1.7°C / -0.6°C

[Больше]
Ветер 40º 10kt Gust 17kt
Видимость 2400m
Погода Light Snow Mist 0.51mm precipitation
Облачность Overcast 400ft
Давление 1012
Изменить -
Необработанный KHYA 290556Z AUTO 04010G17KT 1 1/2SM -SN BR OVC004 02/M01 A2989 RMK AO2 SLP121 P0002 60002 T00171006 10017 20006 58029

IFR

1.7°C / -0.6°C

[Больше]
Ветер 30º 9kt
Видимость 2000m
Погода Light Snow Mist 0.13mm precipitation
Облачность Broken Clouds 600ft
Overcast 1700ft
Давление 1014
Изменить -
Необработанный KHYA 290456Z AUTO 03009KT 1 1/4SM -SN BR BKN006 OVC017 02/M01 A2995 RMK AO2 SLP141 P0000 T00171006 400440006

IFR

1.7°C / -0.6°C

[Больше]
Ветер 40º 9kt
Видимость 3200m
Погода Light Snow Mist 0.13mm precipitation
Облачность Broken Clouds 600ft
Overcast 2600ft
Давление
Изменить -
Необработанный KHYA 290434Z AUTO 04009KT 2SM -SN BR BKN006 OVC026 02/M01 A2996 RMK AO2 P0000 T00171006

IFR

1.7°C / -1.1°C

[Больше]
Ветер 30º 8kt
Видимость 2800m
Погода Light Snow 0.13mm precipitation
Облачность Broken Clouds 600ft
Overcast 2500ft
Давление
Изменить -
Необработанный KHYA 290410Z AUTO 03008KT 1 3/4SM -SN BKN006 OVC025 02/M01 A2998 RMK AO2 P0000 T00171011

IFR

1.7°C / -1.1°C

[Больше]
Ветер 30º 9kt
Видимость 2800m
Погода Light Snow 0.13mm precipitation
Облачность Scattered Clouds 600ft
Overcast 2900ft
Давление 1015
Изменить -
Необработанный KHYA 290356Z AUTO 03009KT 1 3/4SM -SN SCT006 OVC029 02/M01 A2997 RMK AO2 SLP151 P0000 T00171011

IFR

1.1°C / -1.1°C

[Больше]
Ветер 30º 8kt
Видимость 3200m
Погода Light Snow Mist 0.13mm precipitation
Облачность Few Clouds 600ft
Overcast 2900ft
Давление
Изменить -
Необработанный KHYA 290347Z AUTO 03008KT 2SM -SN BR FEW006 OVC029 01/M01 A2998 RMK AO2 P0000 T00111011

IFR

1.1°C / -2.2°C

[Больше]
Ветер 30º 6kt
Видимость 2400m
Погода Light Snow 0.13mm precipitation
Облачность Overcast 2500ft
Давление
Изменить -
Необработанный KHYA 290322Z AUTO 03006KT 1 1/2SM -SN OVC025 01/M02 A3001 RMK AO2 P0000 T00111022

IFR

1.7°C / -2.2°C

[Больше]
Ветер 30º 5kt
Видимость 4000m
Погода Light Snow 0.13mm precipitation
Облачность Overcast 2900ft
Давление
Изменить -
Необработанный KHYA 290306Z AUTO 03005KT 2 1/2SM -SN OVC029 02/M02 A3003 RMK AO2 P0000 T00171022

MVFR

1.7°C / -2.8°C

[Больше]
Ветер 40º 6kt
Видимость 6400m
Погода Light Snow 0.13mm precipitation
Облачность Broken Clouds 3500ft
Overcast 4300ft
Давление 1016
Изменить -
Необработанный KHYA 290256Z 04006KT 4SM -SN BKN035 OVC043 02/M03 A3002 RMK AO2 SNB47 SLP167 P0000 60000 T00171028 58015

VFR

1.1°C / -3.3°C

[Больше]
Ветер 40º 6kt
Видимость >10km
Погода -
Облачность Overcast 4200ft
Давление 1017
Изменить -
Необработанный KHYA 290156Z 04006KT 10SM OVC042 01/M03 A3004 RMK AO2 SLP174 T00111033

VFR

1.1°C / -2.8°C

[Больше]
Ветер 40º 5kt
Видимость >10km
Погода -
Облачность Overcast 4800ft
Давление 1017
Изменить -
Необработанный KHYA 290056Z 04005KT 10SM OVC048 01/M03 A3005 RMK AO2 SLP178 T00111028

VFR

0.6°C / -2.2°C

[Больше]
Ветер 20º 6kt
Видимость >10km
Погода -
Облачность Overcast 5000ft
Давление 1018
Изменить -
Необработанный KHYA 282356Z 02006KT 8SM OVC050 01/M02 A3007 RMK AO2 SLP183 60000 T00061022 10044 20006 58005

VFR

0.6°C / -2.8°C

[Больше]
Ветер 20º 5kt
Видимость >10km
Погода -
Облачность Few Clouds 6000ft
Overcast 8500ft
Давление 1018
Изменить -
Необработанный KHYA 282256Z 02005KT 8SM FEW060 OVC085 01/M03 A3007 RMK AO2 SLP186 T00061028

VFR

1.1°C / -2.8°C

[Больше]
Ветер 20º 3kt
Видимость >10km
Погода -
Облачность Broken Clouds 4100ft
Overcast 6000ft
Давление 1019
Изменить -
Необработанный KHYA 282156Z 02003KT 8SM BKN041 OVC060 01/M03 A3009 RMK AO2 SLP190 T00111028

VFR

2.2°C / -3.3°C

[Больше]
Ветер 330º 5kt
Видимость >10km
Погода 0.13mm precipitation
Облачность Scattered Clouds 3500ft
Overcast 4400ft
Давление 1018
Изменить -
Необработанный KHYA 282056Z 33005KT 9SM SCT035 OVC044 02/M03 A3008 RMK AO2 SNB22E37 SLP188 P0000 60000 T00221033 50001

VFR

2.8°C / -4.4°C

[Больше]
Ветер 280º 4kt
Видимость >10km
Погода -
Облачность Few Clouds 2800ft
Broken Clouds 4600ft
Overcast 8000ft
Давление 1019
Изменить -
Необработанный KHYA 281956Z 28004KT 10SM FEW028 BKN046 OVC080 03/M04 A3009 RMK AO2 SLP191 T00281044

VFR

3.3°C / -5°C

[Больше]
Ветер 260º 7kt
Видимость >10km
Погода -
Облачность Few Clouds 3400ft
Broken Clouds 4800ft
Overcast 6500ft
Давление 1018
Изменить -
Необработанный KHYA 281856Z 26007KT 10SM FEW034 BKN048 OVC065 03/M05 A3007 RMK AO2 SLP185 T00331050

VFR

4.4°C / -7.2°C

[Больше]
Ветер 230º 6kt
Видимость >10km
Погода -
Облачность Overcast 6000ft
Давление 1018
Изменить -
Необработанный KHYA 281756Z 23006KT 10SM OVC060 04/M07 A3008 RMK AO2 SLP186 T00441072 10044 20006 58018

VFR

3.3°C / -7.2°C

[Больше]
Ветер 260º 8kt
Видимость >10km
Погода -
Облачность Overcast 7000ft
Давление 1019
Изменить -
Необработанный KHYA 281656Z 26008KT 10SM OVC070 03/M07 A3011 RMK AO2 SLP197 T00331072

VFR

2.8°C / -6.7°C

[Больше]
Ветер 240º 6kt
Видимость >10km
Погода -
Облачность Overcast 7000ft
Давление 1020
Изменить -
Необработанный KHYA 281556Z 24006KT 10SM OVC070 03/M07 A3012 RMK AO2 SLP201 T00281067

VFR

2.2°C / -7.2°C

[Больше]
Ветер 270º 6kt
Видимость >10km
Погода -
Облачность Few Clouds 5500ft
Broken Clouds 7000ft
Overcast 11000ft
Давление 1020
Изменить -
Необработанный KHYA 281456Z 27006KT 10SM FEW055 BKN070 OVC110 02/M07 A3013 RMK AO2 SLP205 T00221072 58004

TAF для Barnstable (KHYA)

From till


From till Wind 30º 12kt. Visibility 1200m. Light Snow . Overcast 800ft.
From till Wind 30º 28kt. Gust 40kt. Wind Shear at 2000ft with winds 30º 60kt. Visibility 402.335m. Heavy Snow . Overcast 800ft.
From till Wind 10º 34kt. Gust 57kt. Visibility 402.335m. Heavy Snow . Overcast 800ft.
From till Wind 350º 33kt. Gust 56kt. Visibility 1200m. Light Snow . Overcast 1500ft.
From till Wind 330º 27kt. Gust 48kt. Visibility 3200m. Light Snow . Overcast 2500ft.
From till Wind 320º 23kt. Gust 40kt. Visibility 6400m. blowing Snow . Broken Clouds 4500ft.

Необработанный: KHYA 290541Z 2906/3006 03012KT 3/4SM -SN OVC008 FM290900 03028G40KT 1/4SM +SN OVC008 WS020/03060KT FM291900 01034G57KT 1/4SM +SN OVC008 FM292300 35033G56KT 3/4SM -SN OVC015 FM300200 33027G48KT 2SM -SN OVC025 FM300400 32023G40KT 4SM BLSN BKN045

Радарный и сверхкраткосрочный прогноз осадков для Barnstable

Морось
Незначительные
Умеренные
Сильные
Очень Сильные
Град

Индикатор местности находится на Barnstable. Анимация показывает радар осадков за последний час, а также прогноз погоды для 1h. Морось или небольшой снег могут быть невидимы для радара. Интенсивность осадков имеет цветовую кодировку - от светло-голубого до оранжевого.

Текущие спутниковые изображения для Barnstable, США

Указатель местности находится на Barnstable. [Больше]

Спутниковое изображение в реальном времени сочетает в себе видимый свет в дневное время с инфракрасным излучением в ночное время. Ночью изображение получается не темным, так как инфракрасное излучение может обнаружить разницу температур. К сожалению, низкие облака и туман трудно отличить от температуры у поверхности земли и поэтому могут быть почти незаметны ночью. Спутниковые снимки Meteosat для Европы обновляются каждые 5 минут в режиме реального времени.Снимки GOES-16/GOES-17 (Северная и Южная Америка) и Химавари (Азия) обновляются каждые 10 минут.